sensor_id;sensor_type;location;lat;lon;timestamp;temperature;humidity
50969;DHT22;36982;51.474;7.228;2023-03-11T00:00:30;1.40;99.90
50969;DHT22;36982;51.474;7.228;2023-03-11T00:02:58;1.40;99.90
50969;DHT22;36982;51.474;7.228;2023-03-11T00:05:30;1.40;99.90
50969;DHT22;36982;51.474;7.228;2023-03-11T00:07:56;1.40;99.90
50969;DHT22;36982;51.474;7.228;2023-03-11T00:10:37;1.40;99.90
50969;DHT22;36982;51.474;7.228;2023-03-11T00:13:04;1.30;99.90
50969;DHT22;36982;51.474;7.228;2023-03-11T00:15:30;1.30;99.90
50969;DHT22;36982;51.474;7.228;2023-03-11T00:17:57;1.30;99.90
50969;DHT22;36982;51.474;7.228;2023-03-11T00:20:26;1.30;99.90
50969;DHT22;36982;51.474;7.228;2023-03-11T00:22:52;1.40;99.90
50969;DHT22;36982;51.474;7.228;2023-03-11T00:25:19;1.40;99.90
50969;DHT22;36982;51.474;7.228;2023-03-11T00:27:46;1.40;99.90
50969;DHT22;36982;51.474;7.228;2023-03-11T00:30:12;1.40;99.90
50969;DHT22;36982;51.474;7.228;2023-03-11T00:32:38;1.30;99.90
50969;DHT22;36982;51.474;7.228;2023-03-11T00:35:05;1.30;99.90
50969;DHT22;36982;51.474;7.228;2023-03-11T00:37:31;1.30;99.90
50969;DHT22;36982;51.474;7.228;2023-03-11T00:39:58;1.30;99.90
50969;DHT22;36982;51.474;7.228;2023-03-11T00:42:24;1.30;99.90
50969;DHT22;36982;51.474;7.228;2023-03-11T00:44:49;1.40;99.90
50969;DHT22;36982;51.474;7.228;2023-03-11T00:47:15;1.40;99.90
50969;DHT22;36982;51.474;7.228;2023-03-11T00:49:41;1.40;99.90
50969;DHT22;36982;51.474;7.228;2023-03-11T00:52:07;1.40;99.90
50969;DHT22;36982;51.474;7.228;2023-03-11T00:54:33;1.40;99.90
50969;DHT22;36982;51.474;7.228;2023-03-11T00:56:59;1.50;99.90
50969;DHT22;36982;51.474;7.228;2023-03-11T00:59:24;1.50;99.90
50969;DHT22;36982;51.474;7.228;2023-03-11T01:01:50;1.50;99.90
50969;DHT22;36982;51.474;7.228;2023-03-11T01:04:16;1.50;99.90
50969;DHT22;36982;51.474;7.228;2023-03-11T01:06:41;1.60;99.90
50969;DHT22;36982;51.474;7.228;2023-03-11T01:09:07;1.60;99.90
50969;DHT22;36982;51.474;7.228;2023-03-11T01:11:32;1.60;99.90
50969;DHT22;36982;51.474;7.228;2023-03-11T01:13:58;1.60;99.90
50969;DHT22;36982;51.474;7.228;2023-03-11T01:16:24;1.60;99.90
50969;DHT22;36982;51.474;7.228;2023-03-11T01:18:49;1.50;99.90
50969;DHT22;36982;51.474;7.228;2023-03-11T01:21:15;1.50;99.90
50969;DHT22;36982;51.474;7.228;2023-03-11T01:23:41;1.50;99.90
50969;DHT22;36982;51.474;7.228;2023-03-11T01:26:07;1.60;99.90
50969;DHT22;36982;51.474;7.228;2023-03-11T01:28:32;1.60;99.90
50969;DHT22;36982;51.474;7.228;2023-03-11T01:30:59;1.60;99.90
50969;DHT22;36982;51.474;7.228;2023-03-11T01:33:24;1.60;99.90
50969;DHT22;36982;51.474;7.228;2023-03-11T01:35:50;1.60;99.90
50969;DHT22;36982;51.474;7.228;2023-03-11T01:38:16;1.50;99.90
50969;DHT22;36982;51.474;7.228;2023-03-11T01:40:48;1.50;99.90
50969;DHT22;36982;51.474;7.228;2023-03-11T01:46:06;1.60;99.90
50969;DHT22;36982;51.474;7.228;2023-03-11T01:48:32;1.70;99.90
50969;DHT22;36982;51.474;7.228;2023-03-11T01:50:59;1.70;99.90
50969;DHT22;36982;51.474;7.228;2023-03-11T01:54:02;1.80;99.90
50969;DHT22;36982;51.474;7.228;2023-03-11T01:56:29;1.60;99.90
50969;DHT22;36982;51.474;7.228;2023-03-11T01:58:56;1.60;99.90
50969;DHT22;36982;51.474;7.228;2023-03-11T02:01:23;1.60;99.90
50969;DHT22;36982;51.474;7.228;2023-03-11T02:03:48;1.60;99.90
50969;DHT22;36982;51.474;7.228;2023-03-11T02:06:20;1.50;99.90
50969;DHT22;36982;51.474;7.228;2023-03-11T02:08:47;1.40;99.90
50969;DHT22;36982;51.474;7.228;2023-03-11T02:11:19;1.40;99.90
50969;DHT22;36982;51.474;7.228;2023-03-11T02:13:47;1.40;99.90
50969;DHT22;36982;51.474;7.228;2023-03-11T02:16:13;1.40;99.90
50969;DHT22;36982;51.474;7.228;2023-03-11T02:18:39;1.40;99.90
50969;DHT22;36982;51.474;7.228;2023-03-11T02:29:20;1.40;99.90
50969;DHT22;36982;51.474;7.228;2023-03-11T02:31:47;1.40;99.90
50969;DHT22;36982;51.474;7.228;2023-03-11T02:34:35;1.40;99.90
50969;DHT22;36982;51.474;7.228;2023-03-11T02:37:04;1.40;99.90
50969;DHT22;36982;51.474;7.228;2023-03-11T02:39:35;1.40;99.90
50969;DHT22;36982;51.474;7.228;2023-03-11T02:42:06;1.30;99.90
50969;DHT22;36982;51.474;7.228;2023-03-11T02:44:34;1.30;99.90
50969;DHT22;36982;51.474;7.228;2023-03-11T02:47:00;1.30;99.90
50969;DHT22;36982;51.474;7.228;2023-03-11T02:49:26;1.20;99.90
50969;DHT22;36982;51.474;7.228;2023-03-11T02:51:52;1.20;99.90
50969;DHT22;36982;51.474;7.228;2023-03-11T02:54:18;1.20;99.90
50969;DHT22;36982;51.474;7.228;2023-03-11T02:56:43;1.20;99.90
50969;DHT22;36982;51.474;7.228;2023-03-11T02:59:09;1.10;99.90
50969;DHT22;36982;51.474;7.228;2023-03-11T03:01:34;1.10;99.90
50969;DHT22;36982;51.474;7.228;2023-03-11T03:04:00;1.00;99.90
50969;DHT22;36982;51.474;7.228;2023-03-11T03:06:26;1.10;99.90
50969;DHT22;36982;51.474;7.228;2023-03-11T03:08:53;1.10;99.90
50969;DHT22;36982;51.474;7.228;2023-03-11T03:11:19;1.10;99.90
50969;DHT22;36982;51.474;7.228;2023-03-11T03:13:45;1.00;99.90
50969;DHT22;36982;51.474;7.228;2023-03-11T03:16:10;1.00;99.90
50969;DHT22;36982;51.474;7.228;2023-03-11T03:18:37;1.10;99.90
50969;DHT22;36982;51.474;7.228;2023-03-11T03:21:03;1.20;99.90
50969;DHT22;36982;51.474;7.228;2023-03-11T03:23:29;1.20;99.90
50969;DHT22;36982;51.474;7.228;2023-03-11T03:26:00;1.10;99.90
50969;DHT22;36982;51.474;7.228;2023-03-11T03:28:25;1.10;99.90
50969;DHT22;36982;51.474;7.228;2023-03-11T03:30:51;1.10;99.90
50969;DHT22;36982;51.474;7.228;2023-03-11T03:33:16;1.10;99.90
50969;DHT22;36982;51.474;7.228;2023-03-11T03:35:43;1.10;99.90
50969;DHT22;36982;51.474;7.228;2023-03-11T03:38:09;1.10;99.90
50969;DHT22;36982;51.474;7.228;2023-03-11T03:40:35;1.10;99.90
50969;DHT22;36982;51.474;7.228;2023-03-11T03:43:00;1.10;99.90
50969;DHT22;36982;51.474;7.228;2023-03-11T03:45:26;1.20;99.90
50969;DHT22;36982;51.474;7.228;2023-03-11T03:47:52;1.30;99.90
50969;DHT22;36982;51.474;7.228;2023-03-11T03:50:17;1.20;99.90
50969;DHT22;36982;51.474;7.228;2023-03-11T03:52:43;1.20;99.90
50969;DHT22;36982;51.474;7.228;2023-03-11T03:55:09;1.20;99.90
50969;DHT22;36982;51.474;7.228;2023-03-11T03:57:34;1.20;99.90
50969;DHT22;36982;51.474;7.228;2023-03-11T04:00:00;1.30;99.90
50969;DHT22;36982;51.474;7.228;2023-03-11T04:02:26;1.20;99.90
50969;DHT22;36982;51.474;7.228;2023-03-11T04:04:51;1.20;99.90
50969;DHT22;36982;51.474;7.228;2023-03-11T04:07:17;1.20;99.90
50969;DHT22;36982;51.474;7.228;2023-03-11T04:09:43;1.20;99.90
50969;DHT22;36982;51.474;7.228;2023-03-11T04:12:15;1.30;99.90
50969;DHT22;36982;51.474;7.228;2023-03-11T04:14:42;1.30;99.90
50969;DHT22;36982;51.474;7.228;2023-03-11T04:17:11;1.30;99.90
50969;DHT22;36982;51.474;7.228;2023-03-11T04:19:37;1.40;99.90
50969;DHT22;36982;51.474;7.228;2023-03-11T04:22:03;1.40;99.90
50969;DHT22;36982;51.474;7.228;2023-03-11T04:24:28;1.40;99.90
50969;DHT22;36982;51.474;7.228;2023-03-11T04:26:54;1.30;99.90
50969;DHT22;36982;51.474;7.228;2023-03-11T04:29:19;1.30;99.90
50969;DHT22;36982;51.474;7.228;2023-03-11T04:31:45;1.30;99.90
50969;DHT22;36982;51.474;7.228;2023-03-11T04:34:11;1.30;99.90
50969;DHT22;36982;51.474;7.228;2023-03-11T04:36:37;1.30;99.90
50969;DHT22;36982;51.474;7.228;2023-03-11T04:39:02;1.30;99.90
50969;DHT22;36982;51.474;7.228;2023-03-11T04:41:28;1.40;99.90
50969;DHT22;36982;51.474;7.228;2023-03-11T04:43:53;1.30;99.90
50969;DHT22;36982;51.474;7.228;2023-03-11T04:46:19;1.40;99.90
50969;DHT22;36982;51.474;7.228;2023-03-11T04:48:44;1.40;99.90
50969;DHT22;36982;51.474;7.228;2023-03-11T04:51:10;1.30;99.90
50969;DHT22;36982;51.474;7.228;2023-03-11T04:53:35;1.30;99.90
50969;DHT22;36982;51.474;7.228;2023-03-11T04:56:01;1.30;99.90
50969;DHT22;36982;51.474;7.228;2023-03-11T04:58:27;1.30;99.90
50969;DHT22;36982;51.474;7.228;2023-03-11T05:00:52;1.40;99.90
50969;DHT22;36982;51.474;7.228;2023-03-11T05:03:18;1.20;99.90
50969;DHT22;36982;51.474;7.228;2023-03-11T05:05:44;1.30;99.90
50969;DHT22;36982;51.474;7.228;2023-03-11T05:08:10;1.30;99.90
50969;DHT22;36982;51.474;7.228;2023-03-11T05:10:35;1.30;99.90
50969;DHT22;36982;51.474;7.228;2023-03-11T05:13:01;1.30;99.90
50969;DHT22;36982;51.474;7.228;2023-03-11T05:15:27;1.30;99.90
50969;DHT22;36982;51.474;7.228;2023-03-11T05:17:55;1.30;99.90
50969;DHT22;36982;51.474;7.228;2023-03-11T05:20:21;1.30;99.90
50969;DHT22;36982;51.474;7.228;2023-03-11T05:22:46;1.30;99.90
50969;DHT22;36982;51.474;7.228;2023-03-11T05:25:12;1.30;99.90
50969;DHT22;36982;51.474;7.228;2023-03-11T05:27:37;1.20;99.90
50969;DHT22;36982;51.474;7.228;2023-03-11T05:30:03;1.20;99.90
50969;DHT22;36982;51.474;7.228;2023-03-11T05:32:29;1.30;99.90
50969;DHT22;36982;51.474;7.228;2023-03-11T05:34:54;1.30;99.90
50969;DHT22;36982;51.474;7.228;2023-03-11T05:37:20;1.30;99.90
50969;DHT22;36982;51.474;7.228;2023-03-11T05:39:45;1.30;99.90
50969;DHT22;36982;51.474;7.228;2023-03-11T05:42:11;1.30;99.90
50969;DHT22;36982;51.474;7.228;2023-03-11T05:44:37;1.30;99.90
50969;DHT22;36982;51.474;7.228;2023-03-11T05:47:02;1.30;99.70
50969;DHT22;36982;51.474;7.228;2023-03-11T05:49:28;1.30;99.60
50969;DHT22;36982;51.474;7.228;2023-03-11T05:51:53;1.30;99.50
50969;DHT22;36982;51.474;7.228;2023-03-11T05:54:19;1.30;99.50
50969;DHT22;36982;51.474;7.228;2023-03-11T05:56:45;1.20;99.40
50969;DHT22;36982;51.474;7.228;2023-03-11T05:59:15;1.30;99.80
50969;DHT22;36982;51.474;7.228;2023-03-11T06:01:42;1.30;99.10
50969;DHT22;36982;51.474;7.228;2023-03-11T06:04:08;1.40;99.80
50969;DHT22;36982;51.474;7.228;2023-03-11T06:06:34;1.40;99.30
50969;DHT22;36982;51.474;7.228;2023-03-11T06:09:00;1.40;99.20
50969;DHT22;36982;51.474;7.228;2023-03-11T06:11:26;1.40;98.50
50969;DHT22;36982;51.474;7.228;2023-03-11T06:13:53;1.40;98.80
50969;DHT22;36982;51.474;7.228;2023-03-11T06:16:19;1.40;98.20
50969;DHT22;36982;51.474;7.228;2023-03-11T06:18:45;1.40;98.60
50969;DHT22;36982;51.474;7.228;2023-03-11T06:21:19;1.40;98.20
50969;DHT22;36982;51.474;7.228;2023-03-11T06:23:45;1.40;98.50
50969;DHT22;36982;51.474;7.228;2023-03-11T06:26:13;1.50;97.80
50969;DHT22;36982;51.474;7.228;2023-03-11T06:28:41;1.50;97.30
50969;DHT22;36982;51.474;7.228;2023-03-11T06:31:15;1.30;97.70
50969;DHT22;36982;51.474;7.228;2023-03-11T06:33:41;1.40;98.50
50969;DHT22;36982;51.474;7.228;2023-03-11T06:36:07;1.40;98.00
50969;DHT22;36982;51.474;7.228;2023-03-11T06:38:33;1.30;97.10
50969;DHT22;36982;51.474;7.228;2023-03-11T06:41:00;1.20;97.60
50969;DHT22;36982;51.474;7.228;2023-03-11T06:43:26;1.10;97.90
50969;DHT22;36982;51.474;7.228;2023-03-11T06:45:51;1.10;97.90
50969;DHT22;36982;51.474;7.228;2023-03-11T06:48:17;1.10;97.30
50969;DHT22;36982;51.474;7.228;2023-03-11T06:50:42;1.10;97.50
50969;DHT22;36982;51.474;7.228;2023-03-11T06:53:08;1.10;97.50
50969;DHT22;36982;51.474;7.228;2023-03-11T06:55:34;1.10;98.00
50969;DHT22;36982;51.474;7.228;2023-03-11T06:58:00;1.20;97.70
50969;DHT22;36982;51.474;7.228;2023-03-11T07:00:26;1.30;97.50
50969;DHT22;36982;51.474;7.228;2023-03-11T07:02:51;1.20;97.10
50969;DHT22;36982;51.474;7.228;2023-03-11T07:05:17;1.30;96.90
50969;DHT22;36982;51.474;7.228;2023-03-11T07:07:43;1.30;97.40
50969;DHT22;36982;51.474;7.228;2023-03-11T07:10:09;1.40;96.70
50969;DHT22;36982;51.474;7.228;2023-03-11T07:12:35;1.20;96.60
50969;DHT22;36982;51.474;7.228;2023-03-11T07:15:00;1.20;97.00
50969;DHT22;36982;51.474;7.228;2023-03-11T07:17:27;1.30;96.70
50969;DHT22;36982;51.474;7.228;2023-03-11T07:19:53;1.20;96.30
50969;DHT22;36982;51.474;7.228;2023-03-11T07:22:18;1.10;97.00
50969;DHT22;36982;51.474;7.228;2023-03-11T07:24:46;1.20;97.10
50969;DHT22;36982;51.474;7.228;2023-03-11T07:27:11;1.20;96.30
50969;DHT22;36982;51.474;7.228;2023-03-11T07:29:37;1.30;96.40
50969;DHT22;36982;51.474;7.228;2023-03-11T07:32:03;1.30;95.80
50969;DHT22;36982;51.474;7.228;2023-03-11T07:34:28;1.40;96.20
50969;DHT22;36982;51.474;7.228;2023-03-11T07:36:54;1.40;95.50
50969;DHT22;36982;51.474;7.228;2023-03-11T07:39:20;1.40;95.30
50969;DHT22;36982;51.474;7.228;2023-03-11T07:41:46;1.40;95.80
50969;DHT22;36982;51.474;7.228;2023-03-11T07:44:13;1.50;95.40
50969;DHT22;36982;51.474;7.228;2023-03-11T07:46:39;1.50;95.00
50969;DHT22;36982;51.474;7.228;2023-03-11T07:49:05;1.50;94.80
50969;DHT22;36982;51.474;7.228;2023-03-11T07:51:32;1.50;94.90
50969;DHT22;36982;51.474;7.228;2023-03-11T07:53:59;1.50;94.90
50969;DHT22;36982;51.474;7.228;2023-03-11T07:56:27;1.50;94.90
50969;DHT22;36982;51.474;7.228;2023-03-11T07:58:53;1.50;95.10
50969;DHT22;36982;51.474;7.228;2023-03-11T08:01:23;1.60;95.30
50969;DHT22;36982;51.474;7.228;2023-03-11T08:03:51;1.60;95.50
50969;DHT22;36982;51.474;7.228;2023-03-11T08:06:27;1.70;95.10
50969;DHT22;36982;51.474;7.228;2023-03-11T08:08:56;1.70;94.40
50969;DHT22;36982;51.474;7.228;2023-03-11T08:11:22;1.70;93.70
50969;DHT22;36982;51.474;7.228;2023-03-11T08:13:48;1.60;94.20
50969;DHT22;36982;51.474;7.228;2023-03-11T08:16:15;1.60;94.30
50969;DHT22;36982;51.474;7.228;2023-03-11T08:18:42;1.60;94.20
50969;DHT22;36982;51.474;7.228;2023-03-11T08:21:11;1.60;94.20
50969;DHT22;36982;51.474;7.228;2023-03-11T08:23:37;1.60;93.00
50969;DHT22;36982;51.474;7.228;2023-03-11T08:26:04;1.60;92.40
50969;DHT22;36982;51.474;7.228;2023-03-11T08:28:30;1.70;92.20
50969;DHT22;36982;51.474;7.228;2023-03-11T08:30:55;1.70;91.10
50969;DHT22;36982;51.474;7.228;2023-03-11T08:33:21;1.80;90.40
50969;DHT22;36982;51.474;7.228;2023-03-11T08:35:46;1.80;90.00
50969;DHT22;36982;51.474;7.228;2023-03-11T08:38:12;1.90;90.10
50969;DHT22;36982;51.474;7.228;2023-03-11T08:40:37;1.90;90.00
50969;DHT22;36982;51.474;7.228;2023-03-11T08:43:03;1.90;90.80
50969;DHT22;36982;51.474;7.228;2023-03-11T08:45:29;1.90;89.30
50969;DHT22;36982;51.474;7.228;2023-03-11T08:47:54;1.90;84.30
50969;DHT22;36982;51.474;7.228;2023-03-11T08:50:20;2.00;87.20
50969;DHT22;36982;51.474;7.228;2023-03-11T08:52:46;2.00;72.50
50969;DHT22;36982;51.474;7.228;2023-03-11T08:55:13;2.10;78.70
50969;DHT22;36982;51.474;7.228;2023-03-11T08:57:40;2.20;78.30
50969;DHT22;36982;51.474;7.228;2023-03-11T09:00:08;2.10;69.20
50969;DHT22;36982;51.474;7.228;2023-03-11T09:02:33;2.10;63.90
50969;DHT22;36982;51.474;7.228;2023-03-11T09:04:59;2.10;70.90
50969;DHT22;36982;51.474;7.228;2023-03-11T09:07:25;2.20;65.00
50969;DHT22;36982;51.474;7.228;2023-03-11T09:09:50;2.10;58.90
50969;DHT22;36982;51.474;7.228;2023-03-11T09:12:16;2.20;64.90
50969;DHT22;36982;51.474;7.228;2023-03-11T09:14:42;2.20;52.70
50969;DHT22;36982;51.474;7.228;2023-03-11T09:17:09;2.20;46.70
50969;DHT22;36982;51.474;7.228;2023-03-11T09:19:36;2.20;57.30
50969;DHT22;36982;51.474;7.228;2023-03-11T09:22:03;2.30;22.70
50969;DHT22;36982;51.474;7.228;2023-03-11T09:24:32;2.30;6.50
50969;DHT22;36982;51.474;7.228;2023-03-11T09:26:58;2.50;1.00
50969;DHT22;36982;51.474;7.228;2023-03-11T09:29:23;2.60;1.00
50969;DHT22;36982;51.474;7.228;2023-03-11T09:31:49;2.80;1.00
50969;DHT22;36982;51.474;7.228;2023-03-11T09:34:14;2.80;1.00
50969;DHT22;36982;51.474;7.228;2023-03-11T09:36:41;3.00;1.00
50969;DHT22;36982;51.474;7.228;2023-03-11T09:39:07;3.10;1.00
50969;DHT22;36982;51.474;7.228;2023-03-11T09:41:52;3.00;1.00
50969;DHT22;36982;51.474;7.228;2023-03-11T09:44:52;3.00;1.00
50969;DHT22;36982;51.474;7.228;2023-03-11T09:55:43;3.20;99.90
50969;DHT22;36982;51.474;7.228;2023-03-11T09:58:39;3.10;99.90
50969;DHT22;36982;51.474;7.228;2023-03-11T10:03:43;3.10;99.90
50969;DHT22;36982;51.474;7.228;2023-03-11T10:06:22;3.10;99.90
50969;DHT22;36982;51.474;7.228;2023-03-11T10:09:06;3.10;99.90
50969;DHT22;36982;51.474;7.228;2023-03-11T10:12:40;3.00;4.30
50969;DHT22;36982;51.474;7.228;2023-03-11T10:20:37;3.10;99.90
50969;DHT22;36982;51.474;7.228;2023-03-11T10:25:53;3.20;99.90
50969;DHT22;36982;51.474;7.228;2023-03-11T10:28:25;3.30;99.90
50969;DHT22;36982;51.474;7.228;2023-03-11T10:30:56;3.30;99.90
50969;DHT22;36982;51.474;7.228;2023-03-11T10:34:01;3.20;87.60
50969;DHT22;36982;51.474;7.228;2023-03-11T10:36:23;3.30;99.90
50969;DHT22;36982;51.474;7.228;2023-03-11T10:38:53;3.40;1.00
50969;DHT22;36982;51.474;7.228;2023-03-11T10:42:12;3.50;99.90
50969;DHT22;36982;51.474;7.228;2023-03-11T10:44:38;3.70;99.90
50969;DHT22;36982;51.474;7.228;2023-03-11T10:47:05;3.90;1.00
50969;DHT22;36982;51.474;7.228;2023-03-11T10:49:31;3.90;99.90
50969;DHT22;36982;51.474;7.228;2023-03-11T10:51:57;4.00;99.90
50969;DHT22;36982;51.474;7.228;2023-03-11T10:54:38;3.90;99.90
50969;DHT22;36982;51.474;7.228;2023-03-11T11:02:21;3.70;99.90
50969;DHT22;36982;51.474;7.228;2023-03-11T11:04:48;3.80;91.70
50969;DHT22;36982;51.474;7.228;2023-03-11T11:07:28;3.80;8.40
50969;DHT22;36982;51.474;7.228;2023-03-11T11:10:21;3.90;1.00
50969;DHT22;36982;51.474;7.228;2023-03-11T11:15:32;4.20;99.90
50969;DHT22;36982;51.474;7.228;2023-03-11T11:18:17;4.30;99.90
50969;DHT22;36982;51.474;7.228;2023-03-11T11:20:57;4.50;99.90
50969;DHT22;36982;51.474;7.228;2023-03-11T11:26:23;4.80;46.90
50969;DHT22;36982;51.474;7.228;2023-03-11T11:31:36;4.60;94.10
50969;DHT22;36982;51.474;7.228;2023-03-11T11:34:29;4.60;1.00
50969;DHT22;36982;51.474;7.228;2023-03-11T11:37:00;4.80;99.90
50969;DHT22;36982;51.474;7.228;2023-03-11T11:39:31;4.90;99.90
50969;DHT22;36982;51.474;7.228;2023-03-11T11:41:58;4.80;1.00
50969;DHT22;36982;51.474;7.228;2023-03-11T11:44:31;4.80;42.00
50969;DHT22;36982;51.474;7.228;2023-03-11T11:49:36;4.80;99.90
50969;DHT22;36982;51.474;7.228;2023-03-11T11:52:18;5.00;1.00
50969;DHT22;36982;51.474;7.228;2023-03-11T11:54:58;5.00;99.90
50969;DHT22;36982;51.474;7.228;2023-03-11T11:57:25;4.90;99.90
50969;DHT22;36982;51.474;7.228;2023-03-11T11:59:51;4.90;99.90
50969;DHT22;36982;51.474;7.228;2023-03-11T12:05:22;4.90;99.90
50969;DHT22;36982;51.474;7.228;2023-03-11T12:08:19;4.80;99.90
50969;DHT22;36982;51.474;7.228;2023-03-11T12:11:07;4.70;99.90
50969;DHT22;36982;51.474;7.228;2023-03-11T12:16:49;4.80;99.90
50969;DHT22;36982;51.474;7.228;2023-03-11T12:19:27;4.90;1.00
50969;DHT22;36982;51.474;7.228;2023-03-11T12:24:45;4.80;1.00
50969;DHT22;36982;51.474;7.228;2023-03-11T12:27:21;5.00;99.90
50969;DHT22;36982;51.474;7.228;2023-03-11T12:29:54;5.00;84.20
50969;DHT22;36982;51.474;7.228;2023-03-11T12:32:30;5.00;99.90
50969;DHT22;36982;51.474;7.228;2023-03-11T12:35:08;5.20;99.90
50969;DHT22;36982;51.474;7.228;2023-03-11T12:37:35;5.40;1.00
50969;DHT22;36982;51.474;7.228;2023-03-11T12:45:59;5.70;99.90
50969;DHT22;36982;51.474;7.228;2023-03-11T12:51:05;5.60;1.00
50969;DHT22;36982;51.474;7.228;2023-03-11T12:59:30;5.40;99.90
50969;DHT22;36982;51.474;7.228;2023-03-11T13:02:31;5.50;1.00
50969;DHT22;36982;51.474;7.228;2023-03-11T13:08:22;5.60;99.90
50969;DHT22;36982;51.474;7.228;2023-03-11T13:10:51;5.50;1.00
50969;DHT22;36982;51.474;7.228;2023-03-11T13:18:47;5.10;1.00
50969;DHT22;36982;51.474;7.228;2023-03-11T13:27:02;5.10;99.90
50969;DHT22;36982;51.474;7.228;2023-03-11T13:32:31;5.00;99.90
50969;DHT22;36982;51.474;7.228;2023-03-11T13:40:37;5.10;99.90
50969;DHT22;36982;51.474;7.228;2023-03-11T13:43:22;5.20;1.00
50969;DHT22;36982;51.474;7.228;2023-03-11T13:46:04;5.20;99.90
50969;DHT22;36982;51.474;7.228;2023-03-11T13:48:43;5.10;1.00
50969;DHT22;36982;51.474;7.228;2023-03-11T13:53:56;5.20;1.00
50969;DHT22;36982;51.474;7.228;2023-03-11T13:56:31;5.20;1.00
50969;DHT22;36982;51.474;7.228;2023-03-11T13:59:21;5.20;1.00
50969;DHT22;36982;51.474;7.228;2023-03-11T14:01:49;5.20;1.00
50969;DHT22;36982;51.474;7.228;2023-03-11T14:04:19;5.10;99.90
50969;DHT22;36982;51.474;7.228;2023-03-11T14:06:48;5.10;98.00
50969;DHT22;36982;51.474;7.228;2023-03-11T14:09:21;5.00;99.90
50969;DHT22;36982;51.474;7.228;2023-03-11T14:11:47;4.90;99.90
50969;DHT22;36982;51.474;7.228;2023-03-11T14:17:00;5.00;99.90
50969;DHT22;36982;51.474;7.228;2023-03-11T14:19:28;5.00;1.00
50969;DHT22;36982;51.474;7.228;2023-03-11T14:21:54;5.10;99.90
50969;DHT22;36982;51.474;7.228;2023-03-11T14:24:25;5.00;1.00
50969;DHT22;36982;51.474;7.228;2023-03-11T14:26:53;5.00;99.90
50969;DHT22;36982;51.474;7.228;2023-03-11T14:29:26;4.90;99.90
50969;DHT22;36982;51.474;7.228;2023-03-11T14:31:54;5.00;99.90
50969;DHT22;36982;51.474;7.228;2023-03-11T14:34:25;5.10;95.40
50969;DHT22;36982;51.474;7.228;2023-03-11T14:36:57;5.00;1.00
50969;DHT22;36982;51.474;7.228;2023-03-11T14:44:23;5.10;1.00
50969;DHT22;36982;51.474;7.228;2023-03-11T14:46:51;5.20;1.00
50969;DHT22;36982;51.474;7.228;2023-03-11T14:49:20;5.20;99.90
50969;DHT22;36982;51.474;7.228;2023-03-11T14:51:58;5.30;1.00
50969;DHT22;36982;51.474;7.228;2023-03-11T14:54:29;5.30;1.00
50969;DHT22;36982;51.474;7.228;2023-03-11T14:57:05;5.20;45.90
50969;DHT22;36982;51.474;7.228;2023-03-11T14:59:32;5.10;99.90
50969;DHT22;36982;51.474;7.228;2023-03-11T15:02:29;5.00;99.90
50969;DHT22;36982;51.474;7.228;2023-03-11T15:04:52;5.30;99.90
50969;DHT22;36982;51.474;7.228;2023-03-11T15:07:19;5.40;94.40
50969;DHT22;36982;51.474;7.228;2023-03-11T15:09:45;5.40;1.00
50969;DHT22;36982;51.474;7.228;2023-03-11T15:12:34;5.30;1.00
50969;DHT22;36982;51.474;7.228;2023-03-11T15:15:01;5.20;1.00
50969;DHT22;36982;51.474;7.228;2023-03-11T15:17:27;5.20;99.90
50969;DHT22;36982;51.474;7.228;2023-03-11T15:19:55;5.20;99.90
50969;DHT22;36982;51.474;7.228;2023-03-11T15:22:26;5.20;99.90
50969;DHT22;36982;51.474;7.228;2023-03-11T15:25:01;5.20;99.90
50969;DHT22;36982;51.474;7.228;2023-03-11T15:27:33;5.20;1.00
50969;DHT22;36982;51.474;7.228;2023-03-11T15:30:01;5.20;1.00
50969;DHT22;36982;51.474;7.228;2023-03-11T15:32:43;5.30;1.00
50969;DHT22;36982;51.474;7.228;2023-03-11T15:37:38;5.40;1.00
50969;DHT22;36982;51.474;7.228;2023-03-11T15:40:24;5.40;99.90
50969;DHT22;36982;51.474;7.228;2023-03-11T15:45:41;5.40;99.90
50969;DHT22;36982;51.474;7.228;2023-03-11T15:48:11;5.50;99.90
50969;DHT22;36982;51.474;7.228;2023-03-11T15:50:49;5.40;1.00
50969;DHT22;36982;51.474;7.228;2023-03-11T15:53:16;5.40;99.90
50969;DHT22;36982;51.474;7.228;2023-03-11T15:55:41;5.40;99.90
50969;DHT22;36982;51.474;7.228;2023-03-11T15:58:08;5.40;1.00
50969;DHT22;36982;51.474;7.228;2023-03-11T16:00:35;5.40;1.00
50969;DHT22;36982;51.474;7.228;2023-03-11T16:03:01;5.50;1.00
50969;DHT22;36982;51.474;7.228;2023-03-11T16:05:27;5.50;41.10
50969;DHT22;36982;51.474;7.228;2023-03-11T16:07:53;5.50;99.90
50969;DHT22;36982;51.474;7.228;2023-03-11T16:10:21;5.60;99.90
50969;DHT22;36982;51.474;7.228;2023-03-11T16:12:48;5.60;1.00
50969;DHT22;36982;51.474;7.228;2023-03-11T16:15:21;5.60;1.00
50969;DHT22;36982;51.474;7.228;2023-03-11T16:17:50;5.70;1.00
50969;DHT22;36982;51.474;7.228;2023-03-11T16:20:17;5.50;1.00
50969;DHT22;36982;51.474;7.228;2023-03-11T16:22:43;5.60;1.00
50969;DHT22;36982;51.474;7.228;2023-03-11T16:25:19;5.50;36.00
50969;DHT22;36982;51.474;7.228;2023-03-11T16:27:46;5.50;1.00
50969;DHT22;36982;51.474;7.228;2023-03-11T16:30:12;5.40;99.90
50969;DHT22;36982;51.474;7.228;2023-03-11T16:32:40;5.30;99.90
50969;DHT22;36982;51.474;7.228;2023-03-11T16:35:06;5.20;99.90
50969;DHT22;36982;51.474;7.228;2023-03-11T16:37:32;5.20;99.90
50969;DHT22;36982;51.474;7.228;2023-03-11T16:39:58;5.20;99.90
50969;DHT22;36982;51.474;7.228;2023-03-11T16:42:24;5.20;99.90
50969;DHT22;36982;51.474;7.228;2023-03-11T16:44:49;5.20;99.90
50969;DHT22;36982;51.474;7.228;2023-03-11T16:47:15;5.10;44.00
50969;DHT22;36982;51.474;7.228;2023-03-11T16:49:40;5.10;99.90
50969;DHT22;36982;51.474;7.228;2023-03-11T16:52:06;5.20;99.90
50969;DHT22;36982;51.474;7.228;2023-03-11T16:54:32;5.20;1.00
50969;DHT22;36982;51.474;7.228;2023-03-11T16:56:57;5.10;99.90
50969;DHT22;36982;51.474;7.228;2023-03-11T16:59:23;5.00;99.90
50969;DHT22;36982;51.474;7.228;2023-03-11T17:01:48;4.90;99.90
50969;DHT22;36982;51.474;7.228;2023-03-11T17:04:14;4.90;99.90
50969;DHT22;36982;51.474;7.228;2023-03-11T17:06:39;4.90;2.90
50969;DHT22;36982;51.474;7.228;2023-03-11T17:09:05;4.80;1.00
50969;DHT22;36982;51.474;7.228;2023-03-11T17:11:30;4.80;1.00
50969;DHT22;36982;51.474;7.228;2023-03-11T17:13:57;4.80;99.90
50969;DHT22;36982;51.474;7.228;2023-03-11T17:16:23;4.70;99.90
50969;DHT22;36982;51.474;7.228;2023-03-11T17:18:49;4.60;1.00
50969;DHT22;36982;51.474;7.228;2023-03-11T17:21:15;4.60;99.90
50969;DHT22;36982;51.474;7.228;2023-03-11T17:23:41;4.50;99.90
50969;DHT22;36982;51.474;7.228;2023-03-11T17:26:16;4.50;92.30
50969;DHT22;36982;51.474;7.228;2023-03-11T17:28:42;4.40;99.90
50969;DHT22;36982;51.474;7.228;2023-03-11T17:31:13;4.30;99.90
50969;DHT22;36982;51.474;7.228;2023-03-11T17:33:39;4.20;99.90
50969;DHT22;36982;51.474;7.228;2023-03-11T17:36:06;4.00;1.00
50969;DHT22;36982;51.474;7.228;2023-03-11T17:38:33;4.00;99.90
50969;DHT22;36982;51.474;7.228;2023-03-11T17:40:58;3.90;1.00
50969;DHT22;36982;51.474;7.228;2023-03-11T17:43:24;3.90;99.90
50969;DHT22;36982;51.474;7.228;2023-03-11T17:45:50;3.80;99.90